Time,TemperatureF,DewpointF,PressureIn,WindDirection,WindDirectionDegrees,WindSpeedMPH,WindSpeedGustMPH,Humidity,HourlyPrecipIn,Conditions,Clouds,dailyrainin,SoftwareType,DateUTC
2013-02-06 00:00:00,15.7,11.7,29.88,SSE,152,0.0,0.0,84,0.00,,,0.00,Wunderground v.1.15,2013-02-06 05:00:00,
2013-02-06 00:01:00,15.8,11.8,29.88,SSE,152,0.0,0.0,84,0.00,,,0.00,Wunderground v.1.15,2013-02-06 05:01:00,
2013-02-06 00:04:00,15.8,11.8,29.88,SSE,152,0.0,0.0,84,0.00,,,0.00,Wunderground v.1.15,2013-02-06 05:04:00,
2013-02-06 00:06:00,15.9,11.9,29.88,SSE,153,0.0,0.0,84,0.00,,,0.00,Wunderground v.1.15,2013-02-06 05:06:00,
2013-02-06 00:11:00,16.0,12.0,29.88,SSE,152,0.0,0.0,84,0.00,,,0.00,Wunderground v.1.15,2013-02-06 05:11:00,
2013-02-06 00:17:00,16.3,12.0,29.88,SSE,152,0.0,0.0,83,0.00,,,0.00,Wunderground v.1.15,2013-02-06 05:17:00,
2013-02-06 00:23:00,16.7,12.4,29.88,SSE,150,0.0,0.0,83,0.00,,,0.00,Wunderground v.1.15,2013-02-06 05:23:00,
2013-02-06 00:28:00,17.3,12.7,29.88,SSE,150,0.0,0.0,82,0.00,,,0.00,Wunderground v.1.15,2013-02-06 05:28:00,
2013-02-06 00:34:00,17.7,12.9,29.88,ESE,104,0.0,0.0,81,0.00,,,0.00,Wunderground v.1.15,2013-02-06 05:34:00,
2013-02-06 00:39:00,18.0,12.9,29.87,ESE,115,0.0,0.0,80,0.00,,,0.00,Wunderground v.1.15,2013-02-06 05:39:00,
2013-02-06 00:44:00,18.0,12.9,29.87,East,89,0.0,1.0,80,0.00,,,0.00,Wunderground v.1.15,2013-02-06 05:44:00,
2013-02-06 00:50:00,18.1,13.0,29.87,East,93,0.0,1.0,80,0.00,,,0.00,Wunderground v.1.15,2013-02-06 05:50:00,
2013-02-06 00:56:00,18.1,13.0,29.87,East,85,2.0,2.0,80,0.00,,,0.00,Wunderground v.1.15,2013-02-06 05:56:00,
2013-02-06 01:02:00,18.2,13.3,29.87,SE,127,0.0,1.0,81,0.00,,,0.00,Wunderground v.1.15,2013-02-06 06:02:00,
2013-02-06 01:08:00,18.2,13.3,29.87,SE,131,2.0,2.0,81,0.00,,,0.00,Wunderground v.1.15,2013-02-06 06:08:00,
2013-02-06 01:14:00,18.3,13.4,29.87,SE,124,0.0,1.0,81,0.00,,,0.00,Wunderground v.1.15,2013-02-06 06:14:00,
2013-02-06 01:19:00,18.3,13.7,29.87,SE,140,1.0,1.0,82,0.00,,,0.00,Wunderground v.1.15,2013-02-06 06:19:00,
2013-02-06 01:25:00,18.3,13.7,29.87,SSE,148,0.0,1.0,82,0.00,,,0.00,Wunderground v.1.15,2013-02-06 06:25:00,
2013-02-06 01:30:00,18.1,13.8,29.87,SSE,149,0.0,0.0,83,0.00,,,0.00,Wunderground v.1.15,2013-02-06 06:30:00,
2013-02-06 01:35:00,18.0,13.7,29.87,SE,125,1.0,1.0,83,0.00,,,0.00,Wunderground v.1.15,2013-02-06 06:35:00,
2013-02-06 01:41:00,18.0,14.0,29.87,ESE,115,1.0,1.0,84,0.00,,,0.00,Wunderground v.1.15,2013-02-06 06:41:00,
2013-02-06 01:47:00,18.1,14.1,29.87,SSE,152,0.0,2.0,84,0.00,,,0.00,Wunderground v.1.15,2013-02-06 06:47:00,
2013-02-06 01:52:00,18.1,14.1,29.87,East,93,2.0,2.0,84,0.00,,,0.00,Wunderground v.1.15,2013-02-06 06:52:00,
2013-02-06 01:57:00,18.2,14.2,29.87,East,91,2.0,2.0,84,0.00,,,0.00,Wunderground v.1.15,2013-02-06 06:57:00,
2013-02-06 02:02:00,18.2,14.2,29.87,SE,131,0.0,1.0,84,0.00,,,0.00,Wunderground v.1.15,2013-02-06 07:02:00,
2013-02-06 02:07:00,18.1,14.1,29.87,ESE,117,0.0,1.0,84,0.00,,,0.00,Wunderground v.1.15,2013-02-06 07:07:00,
2013-02-06 02:12:00,18.1,14.1,29.87,ESE,117,0.0,0.0,84,0.00,,,0.00,Wunderground v.1.15,2013-02-06 07:12:00,
2013-02-06 02:17:00,17.9,13.9,29.87,ESE,117,0.0,0.0,84,0.00,,,0.00,Wunderground v.1.15,2013-02-06 07:17:00,
2013-02-06 02:22:00,17.6,13.9,29.87,ESE,117,0.0,0.0,85,0.00,,,0.00,Wunderground v.1.15,2013-02-06 07:22:00,
2013-02-06 02:27:00,17.4,13.7,29.87,ESE,117,0.0,0.0,85,0.00,,,0.00,Wunderground v.1.15,2013-02-06 07:27:00,
2013-02-06 02:32:00,17.2,13.7,29.87,ESE,117,0.0,0.0,86,0.00,,,0.00,Wunderground v.1.15,2013-02-06 07:32:00,
2013-02-06 02:37:00,17.0,13.5,29.87,ESE,117,0.0,0.0,86,0.00,,,0.00,Wunderground v.1.15,2013-02-06 07:37:00,
2013-02-06 02:42:00,16.8,13.3,29.87,ESE,117,0.0,0.0,86,0.00,,,0.00,Wunderground v.1.15,2013-02-06 07:42:00,
2013-02-06 02:47:00,16.8,13.6,29.86,ESE,117,0.0,0.0,87,0.00,,,0.00,Wunderground v.1.15,2013-02-06 07:47:00,
2013-02-06 02:52:00,16.8,13.6,29.86,ESE,117,0.0,0.0,87,0.00,,,0.00,Wunderground v.1.15,2013-02-06 07:52:00,
2013-02-06 02:57:00,16.8,13.9,29.86,ESE,117,0.0,0.0,88,0.00,,,0.00,Wunderground v.1.15,2013-02-06 07:57:00,
2013-02-06 03:02:00,16.9,14.0,29.86,ESE,117,0.0,0.0,88,0.00,,,0.00,Wunderground v.1.15,2013-02-06 08:02:00,
2013-02-06 03:07:00,16.8,13.6,29.86,ESE,117,0.0,0.0,87,0.00,,,0.00,Wunderground v.1.15,2013-02-06 08:07:00,
2013-02-06 03:12:00,16.8,13.6,29.85,ESE,117,0.0,0.0,87,0.00,,,0.00,Wunderground v.1.15,2013-02-06 08:12:00,
2013-02-06 03:17:00,16.8,13.9,29.85,ESE,117,0.0,0.0,88,0.00,,,0.00,Wunderground v.1.15,2013-02-06 08:17:00,
2013-02-06 03:22:00,16.9,14.0,29.85,ESE,117,0.0,0.0,88,0.00,,,0.00,Wunderground v.1.15,2013-02-06 08:22:00,
2013-02-06 03:27:00,17.1,14.2,29.85,ESE,117,0.0,0.0,88,0.00,,,0.00,Wunderground v.1.15,2013-02-06 08:27:00,
2013-02-06 03:32:00,17.3,14.4,29.85,ESE,117,0.0,0.0,88,0.00,,,0.00,Wunderground v.1.15,2013-02-06 08:32:00,
2013-02-06 03:38:00,17.3,14.1,29.85,ESE,117,0.0,0.0,87,0.00,,,0.00,Wunderground v.1.15,2013-02-06 08:38:00,
2013-02-06 03:43:00,17.2,14.3,29.86,ESE,117,0.0,0.0,88,0.00,,,0.00,Wunderground v.1.15,2013-02-06 08:43:00,
2013-02-06 03:48:00,17.1,14.2,29.86,ESE,117,0.0,0.0,88,0.00,,,0.00,Wunderground v.1.15,2013-02-06 08:48:00,
2013-02-06 03:53:00,17.0,14.1,29.86,ESE,117,0.0,0.0,88,0.00,,,0.00,Wunderground v.1.15,2013-02-06 08:53:00,
2013-02-06 03:58:00,16.9,14.0,29.86,ESE,117,0.0,0.0,88,0.00,,,0.00,Wunderground v.1.15,2013-02-06 08:58:00,
2013-02-06 04:03:00,16.9,14.0,29.86,ESE,117,0.0,0.0,88,0.00,,,0.00,Wunderground v.1.15,2013-02-06 09:03:00,
2013-02-06 04:08:00,16.9,14.2,29.86,ESE,117,0.0,0.0,89,0.00,,,0.00,Wunderground v.1.15,2013-02-06 09:08:00,
2013-02-06 04:14:00,16.9,14.0,29.86,ESE,117,0.0,0.0,88,0.00,,,0.00,Wunderground v.1.15,2013-02-06 09:14:00,
2013-02-06 04:19:00,16.8,14.1,29.86,ESE,117,0.0,0.0,89,0.00,,,0.00,Wunderground v.1.15,2013-02-06 09:19:00,
2013-02-06 04:24:00,16.8,14.1,29.87,ESE,117,0.0,0.0,89,0.00,,,0.00,Wunderground v.1.15,2013-02-06 09:24:00,
2013-02-06 04:29:00,16.8,14.1,29.87,ESE,117,0.0,0.0,89,0.00,,,0.00,Wunderground v.1.15,2013-02-06 09:29:00,
2013-02-06 04:34:00,16.8,14.1,29.87,ESE,117,0.0,0.0,89,0.00,,,0.00,Wunderground v.1.15,2013-02-06 09:34:00,
2013-02-06 04:39:00,17.0,14.3,29.88,ESE,117,0.0,0.0,89,0.00,,,0.00,Wunderground v.1.15,2013-02-06 09:39:00,
2013-02-06 04:44:00,17.0,14.6,29.88,ESE,117,0.0,0.0,90,0.00,,,0.00,Wunderground v.1.15,2013-02-06 09:44:00,
2013-02-06 04:50:00,17.0,14.3,29.88,ESE,117,0.0,0.0,89,0.00,,,0.00,Wunderground v.1.15,2013-02-06 09:50:00,
2013-02-06 04:55:00,17.0,14.3,29.88,ESE,117,0.0,0.0,89,0.00,,,0.00,Wunderground v.1.15,2013-02-06 09:55:00,
2013-02-06 05:00:00,17.0,14.3,29.88,ESE,117,0.0,0.0,89,0.00,,,0.00,Wunderground v.1.15,2013-02-06 10:00:00,
2013-02-06 05:05:00,17.1,14.4,29.88,ESE,117,0.0,0.0,89,0.00,,,0.00,Wunderground v.1.15,2013-02-06 10:05:00,
2013-02-06 05:10:00,17.2,14.8,29.88,ESE,117,0.0,0.0,90,0.00,,,0.00,Wunderground v.1.15,2013-02-06 10:10:00,
2013-02-06 05:15:00,17.2,14.8,29.88,ESE,117,0.0,0.0,90,0.00,,,0.00,Wunderground v.1.15,2013-02-06 10:15:00,
2013-02-06 05:20:00,17.4,15.0,29.89,ESE,119,0.0,0.0,90,0.00,,,0.00,Wunderground v.1.15,2013-02-06 10:20:00,
2013-02-06 05:25:00,17.8,15.6,29.89,NW,313,0.0,2.0,91,0.00,,,0.00,Wunderground v.1.15,2013-02-06 10:25:00,
2013-02-06 05:30:00,18.0,15.8,29.89,NW,319,1.0,1.0,91,0.00,,,0.00,Wunderground v.1.15,2013-02-06 10:30:00,
2013-02-06 05:35:00,18.5,16.3,29.89,West,260,0.0,2.0,91,0.00,,,0.00,Wunderground v.1.15,2013-02-06 10:35:00,
2013-02-06 05:40:00,19.1,16.9,29.89,NW,304,1.0,4.0,91,0.00,,,0.00,Wunderground v.1.15,2013-02-06 10:40:00,
2013-02-06 05:45:00,19.4,16.9,29.89,WNW,291,0.0,4.0,90,0.00,,,0.00,Wunderground v.1.15,2013-02-06 10:45:00,
2013-02-06 05:50:00,19.4,16.9,29.89,WNW,299,0.0,1.0,90,0.00,,,0.00,Wunderground v.1.15,2013-02-06 10:50:00,
2013-02-06 05:55:00,19.6,17.1,29.89,NW,318,4.0,4.0,90,0.00,,,0.00,Wunderground v.1.15,2013-02-06 10:55:00,
2013-02-06 06:00:00,19.7,17.2,29.90,NW,307,1.0,1.0,90,0.00,,,0.00,Wunderground v.1.15,2013-02-06 11:00:00,
2013-02-06 06:05:00,19.8,17.3,29.90,WNW,297,0.0,3.0,90,0.00,,,0.00,Wunderground v.1.15,2013-02-06 11:05:00,
2013-02-06 06:10:00,19.9,17.2,29.90,West,262,3.0,4.0,89,0.00,,,0.00,Wunderground v.1.15,2013-02-06 11:10:00,
2013-02-06 06:15:00,20.0,17.3,29.90,WNW,288,2.0,4.0,89,0.00,,,0.00,Wunderground v.1.15,2013-02-06 11:15:00,
2013-02-06 06:20:00,20.0,17.3,29.90,West,278,1.0,3.0,89,0.00,,,0.00,Wunderground v.1.15,2013-02-06 11:20:00,
2013-02-06 06:25:00,19.9,17.2,29.90,WNW,298,0.0,3.0,89,0.00,,,0.00,Wunderground v.1.15,2013-02-06 11:25:00,
2013-02-06 06:30:00,19.8,17.1,29.90,WSW,250,0.0,2.0,89,0.00,,,0.00,Wunderground v.1.15,2013-02-06 11:30:00,
2013-02-06 06:35:00,19.7,17.0,29.89,WNW,298,0.0,2.0,89,0.00,,,0.00,Wunderground v.1.15,2013-02-06 11:35:00,
2013-02-06 06:40:00,19.6,16.9,29.90,WNW,302,0.0,4.0,89,0.00,,,0.00,Wunderground v.1.15,2013-02-06 11:40:00,
2013-02-06 06:45:00,19.6,16.6,29.90,WNW,294,0.0,4.0,88,0.00,,,0.00,Wunderground v.1.15,2013-02-06 11:45:00,
2013-02-06 06:50:00,19.4,16.4,29.90,WNW,294,0.0,1.0,88,0.00,,,0.00,Wunderground v.1.15,2013-02-06 11:50:00,
2013-02-06 06:56:00,19.2,16.2,29.90,WNW,294,0.0,1.0,88,0.00,,,0.00,Wunderground v.1.15,2013-02-06 11:56:00,
2013-02-06 07:01:00,18.9,15.9,29.90,WNW,294,0.0,0.0,88,0.00,,,0.00,Wunderground v.1.15,2013-02-06 12:01:00,
2013-02-06 07:06:00,18.7,15.7,29.90,WNW,295,0.0,0.0,88,0.00,,,0.00,Wunderground v.1.15,2013-02-06 12:06:00,
2013-02-06 07:11:00,18.6,15.9,29.91,WSW,254,0.0,2.0,89,0.00,,,0.00,Wunderground v.1.15,2013-02-06 12:11:00,
2013-02-06 07:16:00,18.7,16.0,29.91,WSW,254,0.0,2.0,89,0.00,,,0.00,Wunderground v.1.15,2013-02-06 12:16:00,
2013-02-06 07:21:00,18.7,16.0,29.92,WSW,254,0.0,0.0,89,0.00,,,0.00,Wunderground v.1.15,2013-02-06 12:21:00,
2013-02-06 07:26:00,18.8,16.1,29.92,WSW,254,0.0,0.0,89,0.00,,,0.00,Wunderground v.1.15,2013-02-06 12:26:00,
2013-02-06 07:31:00,18.9,16.2,29.92,West,269,0.0,0.0,89,0.00,,,0.00,Wunderground v.1.15,2013-02-06 12:31:00,
2013-02-06 07:36:00,19.0,16.0,29.92,West,269,0.0,0.0,88,0.00,,,0.00,Wunderground v.1.15,2013-02-06 12:36:00,
2013-02-06 07:41:00,19.2,16.2,29.92,West,269,0.0,0.0,88,0.00,,,0.00,Wunderground v.1.15,2013-02-06 12:41:00,
2013-02-06 07:46:00,19.5,16.3,29.92,West,273,0.0,1.0,87,0.00,,,0.00,Wunderground v.1.15,2013-02-06 12:46:00,
2013-02-06 07:51:00,19.8,16.6,29.92,West,273,0.0,0.0,87,0.00,,,0.00,Wunderground v.1.15,2013-02-06 12:51:00,
2013-02-06 07:56:00,19.9,16.7,29.91,West,273,0.0,0.0,87,0.00,,,0.00,Wunderground v.1.15,2013-02-06 12:56:00,
2013-02-06 08:01:00,20.2,16.4,29.92,SW,225,0.0,4.0,85,0.00,,,0.00,Wunderground v.1.15,2013-02-06 13:01:00,
2013-02-06 08:06:00,20.6,16.8,29.92,SW,225,0.0,4.0,85,0.00,,,0.00,Wunderground v.1.15,2013-02-06 13:06:00,
2013-02-06 08:11:00,20.9,16.8,29.91,WSW,253,0.0,3.0,84,0.00,,,0.00,Wunderground v.1.15,2013-02-06 13:11:00,
2013-02-06 08:16:00,21.2,17.1,29.91,WSW,250,2.0,3.0,84,0.00,,,0.00,Wunderground v.1.15,2013-02-06 13:16:00,
2013-02-06 08:21:00,21.4,17.0,29.92,SW,228,2.0,6.0,83,0.00,,,0.00,Wunderground v.1.15,2013-02-06 13:21:00,
2013-02-06 08:26:00,21.6,17.0,29.91,South,177,2.0,6.0,82,0.00,,,0.00,Wunderground v.1.15,2013-02-06 13:26:00,
2013-02-06 08:31:00,21.6,17.0,29.91,West,280,4.0,4.0,82,0.00,,,0.00,Wunderground v.1.15,2013-02-06 13:31:00,
2013-02-06 08:36:00,21.8,17.2,29.91,SW,232,3.0,6.0,82,0.00,,,0.00,Wunderground v.1.15,2013-02-06 13:36:00,
2013-02-06 08:41:00,21.8,17.2,29.92,WSW,241,1.0,5.0,82,0.00,,,0.00,Wunderground v.1.15,2013-02-06 13:41:00,
2013-02-06 08:46:00,21.9,17.2,29.92,WSW,253,0.0,5.0,82,0.00,,,0.00,Wunderground v.1.15,2013-02-06 13:46:00,
2013-02-06 08:51:00,22.0,17.3,29.92,SW,228,0.0,1.0,82,0.00,,,0.00,Wunderground v.1.15,2013-02-06 13:51:00,
2013-02-06 08:56:00,22.1,17.7,29.92,NNE,33,0.0,1.0,83,0.00,,,0.00,Wunderground v.1.15,2013-02-06 13:56:00,
2013-02-06 09:01:00,22.1,17.7,29.92,ENE,70,1.0,8.0,83,0.00,,,0.00,Wunderground v.1.15,2013-02-06 14:01:00,
2013-02-06 09:06:00,21.9,18.1,29.92,West,280,0.0,8.0,85,0.00,,,0.00,Wunderground v.1.15,2013-02-06 14:06:00,
2013-02-06 09:11:00,21.8,18.0,29.92,West,273,0.0,1.0,85,0.00,,,0.00,Wunderground v.1.15,2013-02-06 14:11:00,
2013-02-06 09:16:00,21.7,17.9,29.92,NNW,346,0.0,4.0,85,0.00,,,0.00,Wunderground v.1.15,2013-02-06 14:16:00,
2013-02-06 09:21:00,21.7,18.2,29.92,NW,323,0.0,3.0,86,0.00,,,0.00,Wunderground v.1.15,2013-02-06 14:21:00,
2013-02-06 09:26:00,21.7,18.2,29.92,NW,314,1.0,3.0,86,0.00,,,0.00,Wunderground v.1.15,2013-02-06 14:26:00,
2013-02-06 09:31:00,21.7,18.2,29.92,SW,214,1.0,5.0,86,0.00,,,0.00,Wunderground v.1.15,2013-02-06 14:31:00,
2013-02-06 09:36:00,21.7,18.4,29.92,WSW,245,0.0,6.0,87,0.00,,,0.00,Wunderground v.1.15,2013-02-06 14:36:00,
2013-02-06 09:41:00,21.7,18.4,29.92,NW,318,3.0,6.0,87,0.00,,,0.00,Wunderground v.1.15,2013-02-06 14:41:00,
2013-02-06 09:46:00,21.9,18.6,29.92,West,264,5.0,6.0,87,0.00,,,0.00,Wunderground v.1.15,2013-02-06 14:46:00,
2013-02-06 09:51:00,22.0,18.7,29.92,WNW,300,2.0,6.0,87,0.00,,,0.00,Wunderground v.1.15,2013-02-06 14:51:00,
2013-02-06 09:56:00,22.2,18.7,29.92,WNW,283,1.0,6.0,86,0.00,,,0.00,Wunderground v.1.15,2013-02-06 14:56:00,
2013-02-06 10:01:00,22.5,18.9,29.93,NW,312,2.0,8.0,86,0.00,,,0.00,Wunderground v.1.15,2013-02-06 15:01:00,
2013-02-06 10:06:00,22.6,18.8,29.93,WNW,302,8.0,9.0,85,0.00,,,0.00,Wunderground v.1.15,2013-02-06 15:06:00,
2013-02-06 10:11:00,22.7,18.9,29.93,WNW,294,3.0,7.0,85,0.00,,,0.00,Wunderground v.1.15,2013-02-06 15:11:00,
2013-02-06 10:16:00,22.9,18.8,29.93,NW,305,8.0,8.0,84,0.00,,,0.00,Wunderground v.1.15,2013-02-06 15:16:00,
2013-02-06 10:21:00,23.0,18.9,29.93,NNW,339,4.0,8.0,84,0.00,,,0.00,Wunderground v.1.15,2013-02-06 15:21:00,
2013-02-06 10:26:00,23.1,18.7,29.93,NW,318,3.0,10.0,83,0.00,,,0.00,Wunderground v.1.15,2013-02-06 15:26:00,
2013-02-06 10:32:00,23.2,18.8,29.93,WNW,302,3.0,7.0,83,0.00,,,0.00,Wunderground v.1.15,2013-02-06 15:32:00,
2013-02-06 10:37:00,23.6,18.9,29.93,WNW,302,8.0,10.0,82,0.00,,,0.00,Wunderground v.1.15,2013-02-06 15:37:00,
2013-02-06 10:42:00,23.8,19.1,29.93,SSW,199,5.0,7.0,82,0.00,,,0.00,Wunderground v.1.15,2013-02-06 15:42:00,
2013-02-06 10:47:00,24.5,19.2,29.93,West,266,2.0,12.0,80,0.00,,,0.00,Wunderground v.1.15,2013-02-06 15:47:00,
2013-02-06 10:52:00,25.0,19.4,29.93,NW,319,6.0,12.0,79,0.00,,,0.00,Wunderground v.1.15,2013-02-06 15:52:00,
2013-02-06 10:57:00,25.6,19.7,29.93,NW,313,4.0,12.0,78,0.00,,,0.00,Wunderground v.1.15,2013-02-06 15:57:00,
2013-02-06 11:02:00,25.7,19.8,29.93,WNW,288,6.0,8.0,78,0.00,,,0.00,Wunderground v.1.15,2013-02-06 16:02:00,
2013-02-06 11:07:00,25.3,19.1,29.94,NW,323,5.0,10.0,77,0.00,,,0.00,Wunderground v.1.15,2013-02-06 16:07:00,
2013-02-06 11:12:00,25.0,19.1,29.94,NNW,329,5.0,10.0,78,0.00,,,0.00,Wunderground v.1.15,2013-02-06 16:12:00,
2013-02-06 11:17:00,25.1,19.2,29.94,NW,308,2.0,10.0,78,0.00,,,0.00,Wunderground v.1.15,2013-02-06 16:17:00,
2013-02-06 11:22:00,25.0,18.8,29.93,NW,305,3.0,10.0,77,0.00,,,0.00,Wunderground v.1.15,2013-02-06 16:22:00,
2013-02-06 11:27:00,25.1,18.9,29.93,West,280,3.0,10.0,77,0.00,,,0.00,Wunderground v.1.15,2013-02-06 16:27:00,
2013-02-06 11:32:00,25.2,18.7,29.93,WNW,294,0.0,9.0,76,0.00,,,0.00,Wunderground v.1.15,2013-02-06 16:32:00,
2013-02-06 11:37:00,25.1,18.9,29.93,WNW,289,5.0,9.0,77,0.00,,,0.00,Wunderground v.1.15,2013-02-06 16:37:00,
2013-02-06 11:42:00,25.0,18.8,29.93,SE,145,1.0,12.0,77,0.00,,,0.00,Wunderground v.1.15,2013-02-06 16:42:00,
2013-02-06 11:47:00,24.8,18.6,29.93,NW,305,11.0,12.0,77,0.00,,,0.00,Wunderground v.1.15,2013-02-06 16:47:00,
2013-02-06 11:52:00,24.8,18.9,29.93,WNW,297,4.0,7.0,78,0.00,,,0.00,Wunderground v.1.15,2013-02-06 16:52:00,
2013-02-06 11:57:00,24.8,18.6,29.93,NW,312,5.0,11.0,77,0.00,,,0.00,Wunderground v.1.15,2013-02-06 16:57:00,
2013-02-06 12:02:00,24.6,18.4,29.93,WSW,253,6.0,9.0,77,0.00,,,0.00,Wunderground v.1.15,2013-02-06 17:02:00,
2013-02-06 12:07:00,24.4,18.8,29.93,NNW,343,2.0,11.0,79,0.00,,,0.00,Wunderground v.1.15,2013-02-06 17:07:00,
2013-02-06 12:12:00,24.0,19.3,29.94,North,355,3.0,14.0,82,0.00,,,0.00,Wunderground v.1.15,2013-02-06 17:12:00,
2013-02-06 12:17:00,23.4,19.8,29.94,WNW,299,6.0,14.0,86,0.00,,,0.00,Wunderground v.1.15,2013-02-06 17:17:00,
2013-02-06 12:22:00,23.0,20.0,29.94,NW,304,6.0,10.0,88,0.00,,,0.00,Wunderground v.1.15,2013-02-06 17:22:00,
2013-02-06 12:27:00,22.9,20.1,29.94,NW,316,7.0,10.0,89,0.00,,,0.00,Wunderground v.1.15,2013-02-06 17:27:00,
2013-02-06 12:32:00,23.1,20.3,29.94,WSW,246,7.0,12.0,89,0.00,,,0.00,Wunderground v.1.15,2013-02-06 17:32:00,
2013-02-06 12:37:00,23.1,20.1,29.95,North,3,3.0,12.0,88,0.00,,,0.00,Wunderground v.1.15,2013-02-06 17:37:00,
2013-02-06 12:42:00,22.7,19.7,29.95,NW,325,6.0,13.0,88,0.00,,,0.00,Wunderground v.1.15,2013-02-06 17:42:00,
2013-02-06 12:47:00,22.4,19.6,29.95,West,260,3.0,13.0,89,0.00,,,0.00,Wunderground v.1.15,2013-02-06 17:47:00,
2013-02-06 12:52:00,22.1,19.4,29.95,North,350,5.0,16.0,89,0.00,,,0.00,Wunderground v.1.15,2013-02-06 17:52:00,
2013-02-06 12:57:00,22.0,19.5,29.95,WNW,283,2.0,16.0,90,0.00,,,0.00,Wunderground v.1.15,2013-02-06 17:57:00,
2013-02-06 13:03:00,22.1,19.6,29.96,NW,304,3.0,8.0,90,0.00,,,0.00,Wunderground v.1.15,2013-02-06 18:03:00,
2013-02-06 13:08:00,22.3,19.8,29.96,WNW,297,3.0,8.0,90,0.00,,,0.00,Wunderground v.1.15,2013-02-06 18:08:00,
2013-02-06 13:13:00,22.5,19.5,29.96,NW,321,3.0,12.0,88,0.00,,,0.00,Wunderground v.1.15,2013-02-06 18:13:00,
2013-02-06 13:18:00,22.7,19.7,29.96,NW,308,7.0,12.0,88,0.00,,,0.00,Wunderground v.1.15,2013-02-06 18:18:00,
2013-02-06 13:23:00,22.9,19.3,29.96,WNW,290,3.0,10.0,86,0.00,,,0.00,Wunderground v.1.15,2013-02-06 18:23:00,
2013-02-06 13:28:00,23.1,19.3,29.96,NW,311,6.0,10.0,85,0.00,,,0.00,Wunderground v.1.15,2013-02-06 18:28:00,
2013-02-06 13:33:00,23.8,19.4,29.96,West,267,8.0,11.0,83,0.00,,,0.00,Wunderground v.1.15,2013-02-06 18:33:00,
2013-02-06 13:38:00,24.3,19.3,29.96,NW,314,4.0,11.0,81,0.00,,,0.00,Wunderground v.1.15,2013-02-06 18:38:00,
2013-02-06 13:43:00,24.8,19.5,29.96,WNW,289,7.0,11.0,80,0.00,,,0.00,Wunderground v.1.15,2013-02-06 18:43:00,
2013-02-06 13:48:00,24.8,18.6,29.96,South,186,3.0,13.0,77,0.00,,,0.00,Wunderground v.1.15,2013-02-06 18:48:00,
2013-02-06 13:53:00,24.9,18.1,29.96,NW,312,9.0,14.0,75,0.00,,,0.00,Wunderground v.1.15,2013-02-06 18:53:00,
2013-02-06 13:58:00,24.8,17.7,29.96,NW,304,6.0,18.0,74,0.00,,,0.00,Wunderground v.1.15,2013-02-06 18:58:00,
2013-02-06 14:04:00,24.7,17.9,29.96,WNW,299,7.0,12.0,75,0.00,,,0.00,Wunderground v.1.15,2013-02-06 19:04:00,
2013-02-06 14:09:00,24.8,18.0,29.96,NW,304,6.0,8.0,75,0.00,,,0.00,Wunderground v.1.15,2013-02-06 19:09:00,
2013-02-06 14:14:00,24.9,18.1,29.96,West,266,6.0,13.0,75,0.00,,,0.00,Wunderground v.1.15,2013-02-06 19:14:00,
2013-02-06 14:19:00,24.9,16.5,29.97,WNW,292,2.0,6.0,70,0.00,,,0.00,Wunderground v.1.15,2013-02-06 19:19:00,
2013-02-06 14:24:00,24.6,15.2,29.97,West,262,7.0,14.0,67,0.00,,,0.00,Wunderground v.1.15,2013-02-06 19:24:00,
2013-02-06 14:29:00,24.8,14.3,29.97,NW,313,8.0,12.0,64,0.00,,,0.00,Wunderground v.1.15,2013-02-06 19:29:00,
2013-02-06 14:34:00,25.5,15.0,29.98,West,262,6.0,12.0,64,0.00,,,0.00,Wunderground v.1.15,2013-02-06 19:34:00,
2013-02-06 14:39:00,26.1,14.1,29.98,WNW,285,4.0,9.0,60,0.00,,,0.00,Wunderground v.1.15,2013-02-06 19:39:00,
2013-02-06 14:44:00,26.4,14.0,29.98,NNE,22,3.0,15.0,59,0.00,,,0.00,Wunderground v.1.15,2013-02-06 19:44:00,
2013-02-06 14:49:00,26.9,14.1,29.99,WNW,301,11.0,11.0,58,0.00,,,0.00,Wunderground v.1.15,2013-02-06 19:49:00,
2013-02-06 14:54:00,26.6,13.0,29.99,West,267,5.0,17.0,56,0.00,,,0.00,Wunderground v.1.15,2013-02-06 19:54:00,
2013-02-06 14:59:00,27.0,13.0,29.99,WSW,257,4.0,9.0,55,0.00,,,0.00,Wunderground v.1.15,2013-02-06 19:59:00,
2013-02-06 15:04:00,27.1,13.1,29.99,WNW,283,9.0,11.0,55,0.00,,,0.00,Wunderground v.1.15,2013-02-06 20:04:00,
2013-02-06 15:10:00,26.7,12.3,29.99,NW,314,12.0,17.0,54,0.00,,,0.00,Wunderground v.1.15,2013-02-06 20:10:00,
2013-02-06 15:15:00,26.5,12.5,30.00,NW,325,4.0,17.0,55,0.00,,,0.00,Wunderground v.1.15,2013-02-06 20:15:00,
2013-02-06 15:20:00,26.3,11.9,30.00,West,264,4.0,14.0,54,0.00,,,0.00,Wunderground v.1.15,2013-02-06 20:20:00,
2013-02-06 15:25:00,26.2,11.8,30.00,WNW,302,3.0,14.0,54,0.00,,,0.00,Wunderground v.1.15,2013-02-06 20:25:00,
2013-02-06 15:30:00,26.4,11.6,30.00,NW,314,9.0,13.0,53,0.00,,,0.00,Wunderground v.1.15,2013-02-06 20:30:00,
2013-02-06 15:35:00,26.1,10.9,30.01,WNW,291,10.0,13.0,52,0.00,,,0.00,Wunderground v.1.15,2013-02-06 20:35:00,
2013-02-06 15:40:00,25.9,10.7,30.01,NNW,332,3.0,13.0,52,0.00,,,0.00,Wunderground v.1.15,2013-02-06 20:40:00,
2013-02-06 15:45:00,25.7,10.5,30.01,NW,321,7.0,13.0,52,0.00,,,0.00,Wunderground v.1.15,2013-02-06 20:45:00,
2013-02-06 15:50:00,25.5,10.7,30.01,West,272,9.0,11.0,53,0.00,,,0.00,Wunderground v.1.15,2013-02-06 20:50:00,
2013-02-06 15:55:00,25.4,10.6,30.02,NW,314,5.0,14.0,53,0.00,,,0.00,Wunderground v.1.15,2013-02-06 20:55:00,
2013-02-06 16:00:00,25.3,10.5,30.02,WNW,299,8.0,8.0,53,0.00,,,0.00,Wunderground v.1.15,2013-02-06 21:00:00,
2013-02-06 16:05:00,25.4,10.2,30.02,NW,326,9.0,12.0,52,0.00,,,0.00,Wunderground v.1.15,2013-02-06 21:05:00,
2013-02-06 16:10:00,25.4,10.2,30.03,SW,226,1.0,8.0,52,0.00,,,0.00,Wunderground v.1.15,2013-02-06 21:10:00,
2013-02-06 16:15:00,25.2,10.0,30.03,NW,313,3.0,13.0,52,0.00,,,0.00,Wunderground v.1.15,2013-02-06 21:15:00,
2013-02-06 16:20:00,25.2,9.6,30.03,NNW,335,2.0,9.0,51,0.00,,,0.00,Wunderground v.1.15,2013-02-06 21:20:00,
2013-02-06 16:25:00,25.2,9.1,30.03,NW,315,5.0,9.0,50,0.00,,,0.00,Wunderground v.1.15,2013-02-06 21:25:00,
2013-02-06 16:30:00,25.0,8.5,30.04,West,276,3.0,8.0,49,0.00,,,0.00,Wunderground v.1.15,2013-02-06 21:30:00,
2013-02-06 16:35:00,24.7,8.2,30.04,NW,304,6.0,8.0,49,0.00,,,0.00,Wunderground v.1.15,2013-02-06 21:35:00,
2013-02-06 16:40:00,24.4,7.5,30.05,NNW,330,6.0,8.0,48,0.00,,,0.00,Wunderground v.1.15,2013-02-06 21:40:00,
2013-02-06 16:45:00,23.9,7.0,30.05,NW,311,1.0,10.0,48,0.00,,,0.00,Wunderground v.1.15,2013-02-06 21:45:00,
2013-02-06 16:50:00,23.3,6.5,30.06,NW,304,6.0,9.0,48,0.00,,,0.00,Wunderground v.1.15,2013-02-06 21:50:00,
2013-02-06 16:56:00,22.8,6.0,30.06,WNW,298,7.0,11.0,48,0.00,,,0.00,Wunderground v.1.15,2013-02-06 21:56:00,
2013-02-06 17:01:00,22.5,6.2,30.06,NNE,26,10.0,10.0,49,0.00,,,0.00,Wunderground v.1.15,2013-02-06 22:01:00,
2013-02-06 17:06:00,22.2,5.9,30.06,NNW,338,6.0,11.0,49,0.00,,,0.00,Wunderground v.1.15,2013-02-06 22:06:00,
2013-02-06 17:11:00,21.9,5.6,30.07,WNW,288,2.0,6.0,49,0.00,,,0.00,Wunderground v.1.15,2013-02-06 22:11:00,
2013-02-06 17:16:00,21.7,5.9,30.07,West,276,0.0,8.0,50,0.00,,,0.00,Wunderground v.1.15,2013-02-06 22:16:00,
2013-02-06 17:21:00,21.5,5.7,30.08,WNW,294,13.0,13.0,50,0.00,,,0.00,Wunderground v.1.15,2013-02-06 22:21:00,
2013-02-06 17:26:00,21.3,6.0,30.08,NW,325,3.0,13.0,51,0.00,,,0.00,Wunderground v.1.15,2013-02-06 22:26:00,
2013-02-06 17:31:00,21.2,5.9,30.08,WSW,250,5.0,9.0,51,0.00,,,0.00,Wunderground v.1.15,2013-02-06 22:31:00,
2013-02-06 17:36:00,21.1,6.2,30.08,WSW,250,1.0,11.0,52,0.00,,,0.00,Wunderground v.1.15,2013-02-06 22:36:00,
2013-02-06 17:41:00,20.9,6.0,30.09,SSW,206,3.0,8.0,52,0.00,,,0.00,Wunderground v.1.15,2013-02-06 22:41:00,
2013-02-06 17:46:00,20.9,6.0,30.09,NW,308,8.0,12.0,52,0.00,,,0.00,Wunderground v.1.15,2013-02-06 22:46:00,
2013-02-06 17:51:00,20.9,6.4,30.09,WNW,283,5.0,10.0,53,0.00,,,0.00,Wunderground v.1.15,2013-02-06 22:51:00,
2013-02-06 17:56:00,20.7,6.7,30.09,NW,304,9.0,10.0,54,0.00,,,0.00,Wunderground v.1.15,2013-02-06 22:56:00,
2013-02-06 18:01:00,20.7,6.7,30.10,WSW,253,3.0,12.0,54,0.00,,,0.00,Wunderground v.1.15,2013-02-06 23:01:00,
2013-02-06 18:06:00,20.6,7.0,30.10,WSW,249,2.0,13.0,55,0.00,,,0.00,Wunderground v.1.15,2013-02-06 23:06:00,
2013-02-06 18:11:00,20.5,6.9,30.10,SW,235,11.0,11.0,55,0.00,,,0.00,Wunderground v.1.15,2013-02-06 23:11:00,
2013-02-06 18:16:00,20.3,6.7,30.11,NW,317,5.0,11.0,55,0.00,,,0.00,Wunderground v.1.15,2013-02-06 23:16:00,
2013-02-06 18:21:00,20.2,7.0,30.11,NW,307,4.0,6.0,56,0.00,,,0.00,Wunderground v.1.15,2013-02-06 23:21:00,
2013-02-06 18:26:00,20.0,6.8,30.11,NW,315,7.0,14.0,56,0.00,,,0.00,Wunderground v.1.15,2013-02-06 23:26:00,
2013-02-06 18:31:00,19.8,7.0,30.12,NW,317,5.0,11.0,57,0.00,,,0.00,Wunderground v.1.15,2013-02-06 23:31:00,
2013-02-06 18:36:00,19.7,6.9,30.12,NW,312,6.0,15.0,57,0.00,,,0.00,Wunderground v.1.15,2013-02-06 23:36:00,
2013-02-06 18:41:00,19.5,6.7,30.13,NW,321,5.0,13.0,57,0.00,,,0.00,Wunderground v.1.15,2013-02-06 23:41:00,
2013-02-06 18:46:00,19.2,6.8,30.13,NW,324,8.0,14.0,58,0.00,,,0.00,Wunderground v.1.15,2013-02-06 23:46:00,
2013-02-06 18:51:00,19.0,6.6,30.14,WSW,250,0.0,7.0,58,0.00,,,0.00,Wunderground v.1.15,2013-02-06 23:51:00,
2013-02-06 18:56:00,18.8,6.4,30.14,West,280,6.0,17.0,58,0.00,,,0.00,Wunderground v.1.15,2013-02-06 23:56:00,
2013-02-06 19:01:00,18.5,6.5,30.15,NW,322,8.0,10.0,59,0.00,,,0.00,Wunderground v.1.15,2013-02-07 00:01:00,
2013-02-06 19:06:00,18.3,6.0,30.15,WSW,252,5.0,10.0,58,0.00,,,0.00,Wunderground v.1.15,2013-02-07 00:06:00,
2013-02-06 19:11:00,18.1,5.8,30.15,NW,307,5.0,8.0,58,0.00,,,0.00,Wunderground v.1.15,2013-02-07 00:11:00,
2013-02-06 19:16:00,17.9,5.6,30.15,NW,309,3.0,13.0,58,0.00,,,0.00,Wunderground v.1.15,2013-02-07 00:16:00,
2013-02-06 19:21:00,17.5,5.6,30.15,WSW,257,6.0,10.0,59,0.00,,,0.00,Wunderground v.1.15,2013-02-07 00:21:00,
2013-02-06 19:26:00,17.4,5.5,30.16,NNW,330,3.0,11.0,59,0.00,,,0.00,Wunderground v.1.15,2013-02-07 00:26:00,
2013-02-06 19:31:00,17.2,5.3,30.16,NNW,333,4.0,13.0,59,0.00,,,0.00,Wunderground v.1.15,2013-02-07 00:31:00,
2013-02-06 19:36:00,17.1,5.6,30.16,NW,307,8.0,14.0,60,0.00,,,0.00,Wunderground v.1.15,2013-02-07 00:36:00,
2013-02-06 19:41:00,16.8,5.3,30.17,NNW,332,2.0,7.0,60,0.00,,,0.00,Wunderground v.1.15,2013-02-07 00:41:00,
2013-02-06 19:46:00,16.4,4.2,30.17,NNW,337,6.0,13.0,58,0.00,,,0.00,Wunderground v.1.15,2013-02-07 00:46:00,
2013-02-06 19:51:00,16.1,3.9,30.17,WNW,298,5.0,12.0,58,0.00,,,0.00,Wunderground v.1.15,2013-02-07 00:51:00,
2013-02-06 19:56:00,15.8,4.0,30.17,WNW,299,4.0,13.0,59,0.00,,,0.00,Wunderground v.1.15,2013-02-07 00:56:00,
2013-02-06 20:01:00,15.5,3.7,30.17,WNW,301,5.0,9.0,59,0.00,,,0.00,Wunderground v.1.15,2013-02-07 01:01:00,
2013-02-06 20:06:00,15.2,3.4,30.18,West,262,0.0,10.0,59,0.00,,,0.00,Wunderground v.1.15,2013-02-07 01:06:00,
2013-02-06 20:12:00,14.9,3.1,30.18,NW,311,6.0,12.0,59,0.00,,,0.00,Wunderground v.1.15,2013-02-07 01:12:00,
2013-02-06 20:17:00,14.7,2.6,30.18,NW,307,6.0,12.0,58,0.00,,,0.00,Wunderground v.1.15,2013-02-07 01:17:00,
2013-02-06 20:22:00,14.4,2.3,30.18,WNW,299,5.0,7.0,58,0.00,,,0.00,Wunderground v.1.15,2013-02-07 01:22:00,
2013-02-06 20:27:00,14.3,2.2,30.18,NW,320,4.0,12.0,58,0.00,,,0.00,Wunderground v.1.15,2013-02-07 01:27:00,
2013-02-06 20:32:00,14.0,1.9,30.19,NNE,32,6.0,10.0,58,0.00,,,0.00,Wunderground v.1.15,2013-02-07 01:32:00,
2013-02-06 20:37:00,13.9,1.5,30.19,WNW,302,2.0,11.0,57,0.00,,,0.00,Wunderground v.1.15,2013-02-07 01:37:00,
2013-02-06 20:42:00,13.5,1.1,30.19,NNW,330,5.0,8.0,57,0.00,,,0.00,Wunderground v.1.15,2013-02-07 01:42:00,
2013-02-06 20:47:00,13.3,0.5,30.19,NNW,336,4.0,9.0,56,0.00,,,0.00,Wunderground v.1.15,2013-02-07 01:47:00,
2013-02-06 20:52:00,13.1,0.3,30.20,NW,318,6.0,6.0,56,0.00,,,0.00,Wunderground v.1.15,2013-02-07 01:52:00,
2013-02-06 20:57:00,12.9,-0.6,30.20,NNW,344,8.0,11.0,54,0.00,,,0.00,Wunderground v.1.15,2013-02-07 01:57:00,
2013-02-06 21:02:00,12.9,-1.0,30.20,NW,311,6.0,7.0,53,0.00,,,0.00,Wunderground v.1.15,2013-02-07 02:02:00,
2013-02-06 21:07:00,12.7,-1.6,30.21,NW,319,8.0,9.0,52,0.00,,,0.00,Wunderground v.1.15,2013-02-07 02:07:00,
2013-02-06 21:12:00,12.6,-2.1,30.21,NW,311,7.0,13.0,51,0.00,,,0.00,Wunderground v.1.15,2013-02-07 02:12:00,
2013-02-06 21:17:00,12.4,-2.7,30.22,NW,325,5.0,13.0,50,0.00,,,0.00,Wunderground v.1.15,2013-02-07 02:17:00,
2013-02-06 21:22:00,12.2,-2.9,30.22,NW,314,7.0,9.0,50,0.00,,,0.00,Wunderground v.1.15,2013-02-07 02:22:00,
2013-02-06 21:27:00,12.1,-3.0,30.22,NW,315,4.0,9.0,50,0.00,,,0.00,Wunderground v.1.15,2013-02-07 02:27:00,
2013-02-06 21:32:00,11.9,-3.2,30.22,WNW,298,3.0,8.0,50,0.00,,,0.00,Wunderground v.1.15,2013-02-07 02:32:00,
2013-02-06 21:37:00,11.7,-3.4,30.22,NW,325,3.0,10.0,50,0.00,,,0.00,Wunderground v.1.15,2013-02-07 02:37:00,
2013-02-06 21:42:00,11.6,-3.5,30.22,NW,311,6.0,11.0,50,0.00,,,0.00,Wunderground v.1.15,2013-02-07 02:42:00,
2013-02-06 21:47:00,11.5,-3.6,30.22,NW,316,9.0,13.0,50,0.00,,,0.00,Wunderground v.1.15,2013-02-07 02:47:00,
2013-02-06 21:52:00,11.4,-3.7,30.23,North,351,3.0,10.0,50,0.00,,,0.00,Wunderground v.1.15,2013-02-07 02:52:00,
2013-02-06 21:57:00,11.2,-3.4,30.23,NW,313,4.0,10.0,51,0.00,,,0.00,Wunderground v.1.15,2013-02-07 02:57:00,
2013-02-06 22:02:00,11.1,-3.9,30.23,NNW,335,4.0,9.0,50,0.00,,,0.00,Wunderground v.1.15,2013-02-07 03:02:00,
2013-02-06 22:07:00,10.9,-3.7,30.23,NW,311,5.0,9.0,51,0.00,,,0.00,Wunderground v.1.15,2013-02-07 03:07:00,
2013-02-06 22:12:00,10.7,-3.9,30.24,NW,315,3.0,11.0,51,0.00,,,0.00,Wunderground v.1.15,2013-02-07 03:12:00,
2013-02-06 22:17:00,10.5,-3.7,30.23,NNW,339,8.0,11.0,52,0.00,,,0.00,Wunderground v.1.15,2013-02-07 03:17:00,
2013-02-06 22:22:00,10.4,-3.8,30.23,NW,305,2.0,12.0,52,0.00,,,0.00,Wunderground v.1.15,2013-02-07 03:22:00,
2013-02-06 22:27:00,10.3,-3.9,30.24,NW,318,5.0,12.0,52,0.00,,,0.00,Wunderground v.1.15,2013-02-07 03:27:00,
2013-02-06 22:32:00,10.2,-4.0,30.24,NNW,348,4.0,8.0,52,0.00,,,0.00,Wunderground v.1.15,2013-02-07 03:32:00,
2013-02-06 22:37:00,10.2,-4.0,30.24,WNW,294,5.0,9.0,52,0.00,,,0.00,Wunderground v.1.15,2013-02-07 03:37:00,
2013-02-06 22:42:00,10.0,-3.8,30.25,NW,312,1.0,7.0,53,0.00,,,0.00,Wunderground v.1.15,2013-02-07 03:42:00,
2013-02-06 22:47:00,10.0,-3.8,30.25,WNW,301,4.0,8.0,53,0.00,,,0.00,Wunderground v.1.15,2013-02-07 03:47:00,
2013-02-06 22:52:00,10.0,-3.8,30.25,WNW,294,9.0,12.0,53,0.00,,,0.00,Wunderground v.1.15,2013-02-07 03:52:00,
2013-02-06 22:57:00,10.0,-3.8,30.25,NW,326,7.0,12.0,53,0.00,,,0.00,Wunderground v.1.15,2013-02-07 03:57:00,
2013-02-06 23:02:00,9.8,-3.9,30.25,NW,324,6.0,8.0,53,0.00,,,0.00,Wunderground v.1.15,2013-02-07 04:02:00,
2013-02-06 23:07:00,9.7,-4.0,30.25,NW,307,7.0,13.0,53,0.00,,,0.00,Wunderground v.1.15,2013-02-07 04:07:00,
2013-02-06 23:12:00,9.6,-4.1,30.25,NW,314,4.0,10.0,53,0.00,,,0.00,Wunderground v.1.15,2013-02-07 04:12:00,
2013-02-06 23:17:00,9.4,-4.3,30.26,NW,315,4.0,12.0,53,0.00,,,0.00,Wunderground v.1.15,2013-02-07 04:17:00,
2013-02-06 23:22:00,9.3,-4.0,30.25,NW,315,2.0,12.0,54,0.00,,,0.00,Wunderground v.1.15,2013-02-07 04:22:00,
2013-02-06 23:27:00,9.0,-3.9,30.25,NNW,328,7.0,12.0,55,0.00,,,0.00,Wunderground v.1.15,2013-02-07 04:27:00,
2013-02-06 23:32:00,8.9,-4.0,30.25,NW,308,6.0,10.0,55,0.00,,,0.00,Wunderground v.1.15,2013-02-07 04:32:00,
2013-02-06 23:37:00,8.9,-4.0,30.25,NW,311,4.0,11.0,55,0.00,,,0.00,Wunderground v.1.15,2013-02-07 04:37:00,
2013-02-06 23:42:00,8.8,-4.1,30.25,NW,304,7.0,10.0,55,0.00,,,0.00,Wunderground v.1.15,2013-02-07 04:42:00,
2013-02-06 23:47:00,8.8,-3.7,30.26,WNW,290,3.0,10.0,56,0.00,,,0.00,Wunderground v.1.15,2013-02-07 04:47:00,
2013-02-06 23:52:00,8.6,-3.9,30.26,NW,322,1.0,9.0,56,0.00,,,0.00,Wunderground v.1.15,2013-02-07 04:52:00,
2013-02-06 23:57:00,8.5,-3.6,30.26,NNW,335,3.0,9.0,57,0.00,,,0.00,Wunderground v.1.15,2013-02-07 04:57:00,